Str. Kaye Barker — WCF3012 — position and weather

sailwx.info

Track history (hours):
 
Tides and Currents Weather Stations Pressure Air Temp Water Temp Dewpoint Dewpoint Depression Visibility Wind Speed Wind Dir Waves Ship Positions

Str. Kaye Barker

Owner: THE INTERLAKE STEAMSHIP COMPANY, Middleburg Heights, OH. More information available from US FCC via Universal Licensing System and Coast Guard Vessel Documentation Center.

Last reported at 2017-Nov-25 03:00 UTC. Time now 2017-Nov-25 04:13 UTC.
Position N 44°30' W 088°00'.

Length 223 m; draft 7.9 m.

Type: Cargo ship. MMSI: 366904910.

Wind from 280 at 7 knots

Barometer 996.7 mb
Air temperature 10.2 ° C
Water temperature 1.8 ° C

Date/timePositionNaut miles runAvg speedWind from/ knotsBaromVisibWave heightAir tempDewpointWater temp
2017-Nov-25 03:00N 44°30' W 088°00'0 0.0 280 / 7996.7 10.2 1.8
2017-Nov-25 02:00N 44°30' W 088°00'0 0.0 290 / 11996.1 11.4 1.9
2017-Nov-25 01:00N 44°30' W 088°00'0 0.0 250 / 9995.0 14.3 1.8
2017-Nov-25 00:00N 44°30' W 088°00'0 0.0 250 / 6993.7 15.2 1.7
2017-Nov-24 23:00N 44°30' W 088°00'0 0.0 260 / 8993.4 15.3 1.7
2017-Nov-24 22:00N 44°30' W 088°00'6 6.0 230 / 13992.0 16.4 1.7
2017-Nov-24 21:00N 44°36' W 088°00'7 7.4 210 / 21991.0 16.2 2.1
2017-Nov-24 20:00N 44°42' W 087°54'4 4.3 210 / 22989.6 11.6 3.0
2017-Nov-24 19:00N 44°42' W 087°48'0 0.0 220 / 23991.3 10.8 3.5
2017-Nov-24 18:00N 44°42' W 087°48'0 0.0 220 / 20993.0 9.6 3.5
2017-Nov-24 17:00N 44°42' W 087°48'0 0.0 220 / 24994.0 8.2 3.5
2017-Nov-24 16:00N 44°42' W 087°48'0 0.0 210 / 26995.4 7.6 3.5
2017-Nov-24 15:00N 44°42' W 087°48'1312.7 210 / 18996.7 6.4 3.6
2017-Nov-24 14:00N 44°54' W 087°42'1010.4 220 / 26996.4 6.5 4.3
2017-Nov-24 13:00N 45°00' W 087°30'1312.7 220 / 28996.7 7.0 5.5
2017-Nov-24 12:00N 45°12' W 087°24'1010.4 210 / 29996.7 6.3 5.7
2017-Nov-24 11:00N 45°18' W 087°12'1414.0 210 / 29997.4 6.1 5.5
2017-Nov-24 10:00N 45°24' W 086°54'1010.3 210 / 29997.8 6.5 4.9
2017-Nov-24 09:00N 45°30' W 086°42'1414.0 200 / 301000.1 5.9 4.9
2017-Nov-24 08:00N 45°36' W 086°24'1514.6 210 / 331000.8 6.4 5.7
2017-Nov-24 07:00N 45°48' W 086°12'1010.3 210 / 321001.5 6.1 5.5
2017-Nov-24 06:00N 45°54' W 086°00'226.6 220 / 331003.5 6.1 5.9
2017-Nov-24 05:54N 45°52' W 085°57'512.5
2017-Nov-24 05:30N 45°53' W 085°50'612.6
2017-Nov-24 05:00N 45°53' W 085°41'175.5
2017-Nov-24 05:00N 45°54' W 085°42'714.1 210 / 311004.5 5.8 5.6
2017-Nov-24 04:30N 45°53' W 085°32'612.8
2017-Nov-24 04:00N 45°53' W 085°23'177.9
2017-Nov-24 04:00N 45°54' W 085°24'714.9 200 / 221006.6 4.8 5.5
2017-Nov-24 03:30N 45°52' W 085°14'713.1
2017-Nov-24 03:00N 45°51' W 085°05'3214.2
2017-Nov-24 03:00N 45°54' W 085°06'817.2 230 / 181007.9 4.5 5.1
2017-Nov-24 02:30N 45°50' W 084°55'713.0
2017-Nov-24 02:00N 45°49' W 084°46'2133.3
2017-Nov-24 02:00N 45°48' W 084°48'715.1 250 / 121008.9 3.7 4.8
2017-Nov-24 01:30N 45°47' W 084°38'713.1
2017-Nov-24 01:00N 45°43' W 084°30'183.6
2017-Nov-24 01:00N 45°42' W 084°30'712.8 220 / 61010.3 2.5 4.9
2017-Nov-24 00:27N 45°41' W 084°20'612.7
2017-Nov-24 00:00N 45°42' W 084°12'713.9 250 / 151009.9 3.1 5.7
2017-Nov-23 23:28N 45°38' W 084°04'613.0
2017-Nov-23 23:00N 45°35' W 083°56'1665.9
2017-Nov-23 23:00N 45°36' W 083°54'612.1 280 / 181009.3 3.4 5.9
2017-Nov-23 22:30N 45°32' W 083°48'612.8
2017-Nov-23 22:00N 45°29' W 083°39'2251.1
2017-Nov-23 22:00N 45°30' W 083°42'817.1
2017-Nov-23 21:30N 45°26' W 083°31'611.0
2017-Nov-23 21:00N 45°24' W 083°24'1514.7 270 / 231008.9 3.7 6.1
2017-Nov-23 20:00N 45°12' W 083°12'1312.7 260 / 191008.9 3.4 6.1
2017-Nov-23 19:00N 45°00' W 083°06'1312.7 230 / 171009.6 2.8 6.0
2017-Nov-23 18:00N 44°48' W 083°00'1312.7 220 / 201010.6 2.0 5.9
2017-Nov-23 17:00N 44°36' W 082°54'1312.7 220 / 241011.610.8 2.2 5.6
2017-Nov-23 16:00N 44°24' W 082°48'1312.7 230 / 241013.3 1.7 5.5
2017-Nov-23 15:00N 44°12' W 082°42'1312.8 240 / 241014.3 1.2 5.6
2017-Nov-23 14:00N 44°00' W 082°36'1312.8 220 / 191015.7 0.6 5.8
2017-Nov-23 13:00N 43°48' W 082°30'1212.0 220 / 161016.4 0.1 5.7
2017-Nov-23 12:00N 43°36' W 082°30'1818.0 210 / 191017.1 0.1 5.8
2017-Nov-23 11:00N 43°18' W 082°30'1312.8 230 / 171017.4 0.2 6.0
2017-Nov-23 10:00N 43°06' W 082°24'1212.0 220 / 161018.4 -0.1 6.2
2017-Nov-23 09:00N 42°54' W 082°24'7 7.4 210 / 121019.4 -0.1 5.8
2017-Nov-23 08:00N 42°48' W 082°30'1212.0 200 / 41020.4 -0.7 5.7
2017-Nov-23 07:00N 42°36' W 082°30'1110.7 190 / 41021.1 0.4 5.8
2017-Nov-23 06:00N 42°30' W 082°42'1110.7 210 / 121020.9 1.1 5.2
2017-Nov-23 05:00N 42°24' W 082°54'1110.7 170 / 81021.3 0.2 4.3
2017-Nov-23 04:00N 42°18' W 083°06'1212.0 120 / 41021.9 -0.9 4.3
2017-Nov-23 03:00N 42°06' W 083°06'6 6.0 340 / 21022.6 0.2 4.3
2017-Nov-23 02:00N 42°00' W 083°06'1312.8 220 / 91022.9 1.4 4.3
2017-Nov-23 01:00N 41°48' W 083°12'1110.8 180 / 111023.2 1.2 4.2
2017-Nov-23 00:00N 41°42' W 083°24'4 4.5 150 / 61023.9 0.3 4.5
2017-Nov-22 23:00N 41°42' W 083°30'0 0.0 210 / 11024.2 1.3 4.7
2017-Nov-22 22:00N 41°42' W 083°30'0 0.0 290 / 41023.9 1.5 4.6
2017-Nov-22 21:00N 41°42' W 083°30'0 0.0 300 / 71023.9 1.6 4.7
2017-Nov-22 20:00N 41°42' W 083°30'0 0.0 290 / 61023.9 1.7 4.6
2017-Nov-22 19:00N 41°42' W 083°30'0 0.0 240 / 61023.9 1.4 4.6
2017-Nov-22 18:00N 41°42' W 083°30'0 0.0 010 / 21023.9 1.8 4.6
2017-Nov-22 17:00N 41°42' W 083°30'4 4.5 320 / 71024.5 0.9 4.5
2017-Nov-22 16:00N 41°42' W 083°24'0 0.0 330 / 41024.9 0.4 4.9
2017-Nov-22 15:00N 41°42' W 083°24'0 0.0 360 / 71024.2 -0.5 4.9
2017-Nov-22 14:00N 41°42' W 083°24'0 0.0 360 / 81023.9 -0.3 4.9
2017-Nov-22 13:00N 41°42' W 083°24'0 0.0 360 / 101023.5 -0.1 4.8
2017-Nov-22 12:00N 41°42' W 083°24'0 0.0 350 / 71022.5 0.3 5.2
2017-Nov-22 11:00N 41°42' W 083°24'0 0.0 320 / 81021.8 0.4 5.1
2017-Nov-22 10:00N 41°42' W 083°24'0 0.0 360 / 81020.8 0.5 5.3
2017-Nov-22 09:00N 41°42' W 083°24'0 0.0 360 / 71019.8 1.1 5.4
2017-Nov-22 08:00N 41°42' W 083°24'0 0.0 360 / 71019.5 1.6 5.3
2017-Nov-22 07:00N 41°42' W 083°24'0 0.0 320 / 81018.5 1.9 5.0
2017-Nov-22 06:00N 41°42' W 083°24'7 7.5 310 / 101017.8 2.6 4.8
2017-Nov-22 05:00N 41°48' W 083°18'1110.8 290 / 221015.7 2.9 4.2
2017-Nov-22 04:00N 41°54' W 083°06'6 6.0 290 / 221014.7 3.5 4.3
2017-Nov-22 03:00N 42°00' W 083°06'1212.0 310 / 161014.4 4.0 4.4
2017-Nov-22 02:00N 42°12' W 083°06'7 7.5 300 / 81013.8 4.2 4.7
2017-Nov-22 01:00N 42°18' W 083°00'1110.7 270 / 131012.8 4.5 4.8
2017-Nov-22 00:00N 42°24' W 082°48'7 7.5 270 / 191011.5 4.9 4.7
2017-Nov-21 23:00N 42°30' W 082°42'1110.7 260 / 121010.8 6.6 5.8
2017-Nov-21 22:00N 42°36' W 082°30'1212.0 280 / 111009.6 7.1 5.6
2017-Nov-21 21:00N 42°48' W 082°30'1312.8 210 / 111007.6 9.0 5.6
2017-Nov-21 20:00N 43°00' W 082°24'6 6.0 210 / 121006.2 9.4 5.8
2017-Nov-21 19:00N 43°06' W 082°24'1212.0 220 / 191005.2 9.7 6.8
2017-Nov-21 18:00N 43°18' W 082°24'1312.8 220 / 181003.9 9.3 6.3
2017-Nov-21 17:00N 43°30' W 082°30'1212.0 220 / 221002.8 8.5 6.1
2017-Nov-21 16:00N 43°42' W 082°30'1312.8 220 / 261002.2 7.5 6.3
2017-Nov-21 15:00N 43°54' W 082°36'1514.8 220 / 231001.5 7.0 5.8
2017-Nov-21 14:00N 44°06' W 082°48'1312.7 210 / 31999.8 6.9 5.8
2017-Nov-21 13:00N 44°18' W 082°54'1514.7 210 / 38997.810.8 6.8 5.8
2017-Nov-21 12:00N 44°30' W 083°06'7 7.4 210 / 39997.1 6.2 5.6
2017-Nov-21 11:00N 44°36' W 083°12'1312.7 210 / 32996.7 6.0 5.6
2017-Nov-21 10:00N 44°48' W 083°06'1212.0 200 / 34996.1 5.8 6.4
2017-Nov-21 09:00N 45°00' W 083°06'1212.0 200 / 28996.4 6.9 6.3
2017-Nov-21 08:00N 45°12' W 083°06'1514.7 200 / 35995.4 7.1 6.4
2017-Nov-21 07:00N 45°24' W 083°18'1010.3 190 / 33995.0 7.3 6.6
2017-Nov-21 06:00N 45°30' W 083°30'1514.6 200 / 32995.0 8.0 6.4
2017-Nov-21 05:00N 45°42' W 083°42'1312.7 190 / 29995.4 7.4 6.2
2017-Nov-21 04:00N 45°54' W 083°48'1010.3 190 / 26996.1 6.9 4.7
2017-Nov-21 03:00N 46°00' W 084°00'1312.7 170 / 18997.8 5.7 3.0
2017-Nov-21 02:00N 46°12' W 084°06'7 7.3 160 / 16998.8 5.0 3.7
2017-Nov-21 01:00N 46°18' W 084°12'7 7.3 140 / 101000.1 4.0 4.4
2017-Nov-21 00:00N 46°24' W 084°18'6 6.0 120 / 141001.5 2.9 4.5
2017-Nov-20 23:00N 46°30' W 084°18'4 4.1 100 / 81002.8 2.4 4.7
2017-Nov-20 22:00N 46°30' W 084°24'0 0.0 110 / 71003.7 2.4 4.6
2017-Nov-20 21:00N 46°30' W 084°24'0 0.0 100 / 81004.4 1.9 4.5
2017-Nov-20 20:00N 46°30' W 084°24'0 0.0 110 / 131004.7 2.0 4.8
2017-Nov-20 19:00N 46°30' W 084°24'8 8.3 150 / 121006.1 1.8 5.4
2017-Nov-20 18:00N 46°30' W 084°36'1514.6 160 / 141006.4 1.8 5.6
2017-Nov-20 17:00N 46°42' W 084°48'1010.2 140 / 171006.8 0.9 6.1
2017-Nov-20 16:00N 46°48' W 085°00'1212.3 160 / 141007.5 -0.0 5.4
2017-Nov-20 15:00N 46°48' W 085°18'1212.3 160 / 131008.1 -0.9 5.2
2017-Nov-20 14:00N 46°48' W 085°36'1212.3 200 / 101008.810.8 -0.7 5.5
2017-Nov-20 13:00N 46°48' W 085°54'8 8.2 180 / 101008.5 -0.9 5.2
2017-Nov-20 12:00N 46°48' W 086°06'1413.7 190 / 131008.8 -0.7 5.6
2017-Nov-20 11:00N 46°42' W 086°24'1616.5 210 / 111009.1 -0.0 5.1
2017-Nov-20 10:00N 46°42' W 086°48'1413.7 220 / 111009.1 -0.9 5.3
2017-Nov-20 09:00N 46°36' W 087°06'1212.4 220 / 131009.8 -1.4 5.4
2017-Nov-20 08:00N 46°36' W 087°24'0 0.0 250 / 101009.8 -2.4 4.6
2017-Nov-20 07:00N 46°36' W 087°24'0 0.0 180 / 21010.2 -2.5 4.5
2017-Nov-20 06:00N 46°36' W 087°24'0 0.0 110 / 21010.5 -2.1 4.5
2017-Nov-20 05:00N 46°36' W 087°24'0 0.0 270 / 21010.5 -1.9 4.5
2017-Nov-20 04:00N 46°36' W 087°24'0 0.0 250 / 11010.5 -2.5 4.5
2017-Nov-20 03:00N 46°36' W 087°24'0 0.0 240 / 21010.8 -3.2 4.5
2017-Nov-20 02:00N 46°36' W 087°24'0 0.0 110 / 21010.8 -3.4 4.4
2017-Nov-20 01:00N 46°36' W 087°24'0 0.0 220 / 31010.8 -3.5 4.4
2017-Nov-20 00:00N 46°36' W 087°24'0 0.0 190 / 21010.8 -3.6 4.4
2017-Nov-19 23:00N 46°36' W 087°24'0 0.0 130 / 21011.2 -3.5 4.4
2017-Nov-19 22:00N 46°36' W 087°24'0 0.0 230 / 21011.5 -3.2 4.5
2017-Nov-19 21:00N 46°36' W 087°24'0 0.0 230 / 21011.5 -3.1 4.5
2017-Nov-19 20:00N 46°36' W 087°24'0 0.0 130 / 21010.8 -2.8 4.7
2017-Nov-19 19:00N 46°36' W 087°24'0 0.0 250 / 21011.2 -2.7 4.9
2017-Nov-19 18:00N 46°36' W 087°24'0 0.0 230 / 31011.2 -2.9 4.9
2017-Nov-19 17:00N 46°36' W 087°24'0 0.0 250 / 21011.5 -3.2 5.0
2017-Nov-19 16:00N 46°36' W 087°24'0 0.0 240 / 21011.9 -3.3 5.1
2017-Nov-19 15:00N 46°36' W 087°24'0 0.0 220 / 21011.5 -3.5 5.1
2017-Nov-19 14:00N 46°36' W 087°24'0 0.0 250 / 21011.2 -3.5 5.1
2017-Nov-19 13:00N 46°36' W 087°24'0 0.0 300 / 31010.8 -3.6 5.1
2017-Nov-19 12:00N 46°36' W 087°24'0 0.0 300 / 31010.5 -3.3 5.1
2017-Nov-19 11:00N 46°36' W 087°24'0 0.0 310 / 51010.5 -3.0 5.2
2017-Nov-19 10:00N 46°36' W 087°24'0 0.0 340 / 41009.8 -2.6 5.2
2017-Nov-19 09:00N 46°36' W 087°24'0 0.0 330 / 31009.1 -2.3 5.2
2017-Nov-19 08:00N 46°36' W 087°24'0 0.0 320 / 71009.5 -2.3 5.3
2017-Nov-19 07:00N 46°36' W 087°24'0 0.0 270 / 51008.8 -1.8 5.2
2017-Nov-19 06:00N 46°36' W 087°24'0 0.0 340 / 81008.1 -1.6 5.2
2017-Nov-19 05:00N 46°36' W 087°24'0 0.0 350 / 61007.8 -1.3 5.2
2017-Nov-19 04:00N 46°36' W 087°24'0 0.0 320 / 111007.1 -0.8 5.2
2017-Nov-19 03:00N 46°36' W 087°24'0 0.0 320 / 61006.8 -0.2 5.1
2017-Nov-19 02:00N 46°36' W 087°24'0 0.0 280 / 141006.1 0.6 5.0
2017-Nov-19 01:00N 46°36' W 087°24'0 0.0 300 / 51005.8 -0.0 5.0
2017-Nov-19 00:00N 46°36' W 087°24'0 0.0 300 / 111005.8 0.2 5.0
2017-Nov-18 23:00N 46°36' W 087°24'0 0.0 310 / 171004.7 1.0 4.9
2017-Nov-18 22:00N 46°36' W 087°24'0 0.0 320 / 81004.7 1.4 4.9
2017-Nov-18 21:00N 46°36' W 087°24'0 0.0 320 / 91003.7 1.9 4.9
2017-Nov-18 20:00N 46°36' W 087°24'0 0.0 320 / 121003.0 2.9 4.9
2017-Nov-18 19:00N 46°36' W 087°24'0 0.0 340 / 171002.7 3.1 4.9
2017-Nov-18 18:00N 46°36' W 087°24'0 0.0 350 / 141002.4 3.5 4.9
2017-Nov-18 17:00N 46°36' W 087°24'0 0.0 360 / 141002.4 3.9 5.0
2017-Nov-18 16:00N 46°36' W 087°24'0 0.0 010 / 141002.7 4.1 5.0
2017-Nov-18 15:00N 46°36' W 087°24'1212.4 360 / 241002.0 4.3 5.4
2017-Nov-18 14:00N 46°36' W 087°06'1413.7 340 / 221001.7 4.1 5.4
2017-Nov-18 13:00N 46°42' W 086°48'1212.3 350 / 181001.4 4.3 4.9
2017-Nov-18 12:00N 46°42' W 086°30'1616.5 1001.4 4.0 6.0
2017-Nov-18 11:00N 46°42' W 086°06'1413.7 350 / 181000.7 4.0 5.8
2017-Nov-18 10:00N 46°48' W 085°48'1212.3 340 / 141000.7 3.9 5.6
2017-Nov-18 09:00N 46°48' W 085°30'1212.3 200 / 61000.3 2.5 5.7
2017-Nov-18 08:00N 46°48' W 085°12'1413.7 160 / 81001.0 2.4 5.3
2017-Nov-18 07:00N 46°42' W 084°54'1010.2 180 / 141001.4 2.9 6.2
2017-Nov-18 06:00N 46°36' W 084°42'1010.2 130 / 181002.0 2.2 6.4
2017-Nov-18 05:00N 46°30' W 084°30'4 4.1 110 / 81002.7 1.9 5.8
2017-Nov-18 04:00N 46°30' W 084°24'4 4.1 110 / 41004.1 1.8 5.3
2017-Nov-18 03:00N 46°30' W 084°18'7 7.3 130 / 101004.9 1.8 4.9
2017-Nov-18 02:00N 46°24' W 084°12'7 7.3 150 / 101006.2 1.4 4.8
2017-Nov-18 01:00N 46°18' W 084°06'6 6.0 150 / 101007.6 2.2 4.8
2017-Nov-18 00:00N 46°12' W 084°06'1514.6 140 / 171008.3 2.9 4.2
2017-Nov-17 23:00N 46°00' W 083°54'7 7.3 160 / 241008.3 3.6 3.3
2017-Nov-17 22:00N 45°54' W 084°00'1413.9 140 / 291008.9 3.1 6.1
2017-Nov-17 21:00N 45°48' W 084°18'718.0 140 / 281008.9 2.7 6.9
2017-Nov-17 20:35N 45°51' W 084°28'112.7
2017-Nov-17 20:30N 45°51' W 084°29'510.4
2017-Nov-17 20:00N 45°48' W 084°36'357.4 130 / 171010.3 1.5 5.9
2017-Nov-17 19:57N 45°50' W 084°39'511.8
2017-Nov-17 19:30N 45°49' W 084°46'612.2
2017-Nov-17 19:00N 45°49' W 084°55'1114.6
2017-Nov-17 19:00N 45°48' W 084°54'714.7 120 / 211011.6 1.1 6.2
2017-Nov-17 18:30N 45°50' W 085°04'4 8.9
2017-Nov-17 18:00N 45°47' W 085°09'2171.9
2017-Nov-17 18:00N 45°48' W 085°06'816.0 120 / 101014.3 1.8 6.1
2017-Nov-17 17:30N 45°42' W 085°13'713.4
2017-Nov-17 17:00N 45°36' W 085°18'137.0
2017-Nov-17 17:00N 45°36' W 085°18'613.4 190 / 171016.0 1.8 8.6
2017-Nov-17 16:30N 45°31' W 085°24'713.6
2017-Nov-17 16:00N 45°26' W 085°30'2109.2
2017-Nov-17 16:00N 45°24' W 085°30'511.3 180 / 241016.0 2.1 8.5
2017-Nov-17 15:30N 45°20' W 085°36'713.6
2017-Nov-17 15:00N 45°15' W 085°42'3250.3
2017-Nov-17 15:00N 45°18' W 085°42'919.1 160 / 221017.4 1.5 8.5
2017-Nov-17 14:30N 45°09' W 085°47'611.5
2017-Nov-17 14:00N 45°06' W 085°54'1514.7 160 / 191018.4 0.7 8.0
2017-Nov-17 13:00N 44°54' W 086°06'1010.4 140 / 191018.4 0.9 7.8
2017-Nov-17 12:00N 44°48' W 086°18'1312.7 140 / 181019.4 0.4 8.1
2017-Nov-17 11:00N 44°36' W 086°24'1312.7 180 / 201020.1 0.8 8.8
2017-Nov-17 10:00N 44°24' W 086°30'1918.5 140 / 191020.8 0.5 8.0
2017-Nov-17 09:00N 44°06' W 086°36'1212.0 140 / 171021.5 0.7 7.4
2017-Nov-17 08:00N 43°54' W 086°36'1212.0 150 / 121022.5 1.3 7.7
2017-Nov-17 07:00N 43°42' W 086°36'1312.8 120 / 131022.1 1.0 7.4
2017-Nov-17 06:00N 43°30' W 086°30'1312.8 110 / 141021.8 0.8 7.5
2017-Nov-17 05:00N 43°18' W 086°24'1312.8 080 / 141022.5 0.7 7.3
2017-Nov-17 04:00N 43°06' W 086°18'4 4.4 040 / 121022.8 0.5 6.2
2017-Nov-17 03:00N 43°06' W 086°12'0 0.0 020 / 41023.8 0.5 4.1
2017-Nov-17 02:00N 43°06' W 086°12'0 0.0 330 / 31023.8 -0.0 4.1
2017-Nov-17 01:00N 43°06' W 086°12'0 0.0 350 / 41023.5 0.6 4.3
2017-Nov-17 00:00N 43°06' W 086°12'0 0.0 350 / 41023.2 1.5 4.2
2017-Nov-16 23:00N 43°06' W 086°12'0 0.0 340 / 61022.5 2.6 4.2
2017-Nov-16 22:00N 43°06' W 086°12'0 0.0 320 / 61022.1 3.4 4.1
2017-Nov-16 21:00N 43°06' W 086°12'0 0.0 340 / 71021.5 4.4 4.3
2017-Nov-16 20:00N 43°06' W 086°12'9 8.8 340 / 101021.1 3.7 4.5
2017-Nov-16 19:00N 43°06' W 086°24'1312.8 330 / 201021.1 3.4 7.7
2017-Nov-16 18:00N 43°18' W 086°30'1312.8 320 / 191021.1 3.5 8.1
2017-Nov-16 17:00N 43°30' W 086°36'1514.8 330 / 211021.1 2.7 7.8
2017-Nov-16 16:00N 43°42' W 086°48'1312.8 340 / 201021.1 2.7 7.8
2017-Nov-16 15:00N 43°54' W 086°54'2713.6 340 / 251020.4 2.2 7.6
2017-Nov-16 13:00N 44°18' W 087°12'1312.7 330 / 271018.4 1.3 6.7
2017-Nov-16 12:00N 44°30' W 087°18'7 7.4 340 / 251017.1 1.6 5.5
2017-Nov-16 11:00N 44°36' W 087°12'1312.7 330 / 251015.7 1.4 6.5
2017-Nov-16 10:00N 44°48' W 087°06'6 6.0 330 / 221014.3 1.9 7.2
2017-Nov-16 09:00N 44°54' W 087°06'7 7.4 320 / 281012.7 1.8 6.0
2017-Nov-16 08:00N 45°00' W 087°00'1312.7 320 / 291011.0 2.2 6.2
2017-Nov-16 07:00N 45°12' W 086°54'1010.4 320 / 301008.9 3.0 5.5
2017-Nov-16 06:00N 45°18' W 086°42'7 7.3 320 / 301007.2 3.5 5.9
2017-Nov-16 05:00N 45°24' W 086°36'7 7.3 300 / 331005.5 4.2 7.3
2017-Nov-16 04:00N 45°30' W 086°30'7 7.3 290 / 351003.5 4.3 7.9
2017-Nov-16 03:00N 45°36' W 086°24'1312.7 280 / 381001.8 4.2 8.2
2017-Nov-16 02:00N 45°48' W 086°18'1413.9 280 / 251001.1 3.7 7.3
2017-Nov-16 01:00N 45°54' W 086°00'516.7 290 / 27999.8 4.9 7.3
2017-Nov-16 00:41N 45°52' W 085°53'810.8
2017-Nov-16 00:00N 46°00' W 085°54'0 0.0 290 / 161000.5 4.9 5.4
2017-Nov-15 23:00N 46°00' W 085°54'0 0.0 290 / 81000.5 5.0 5.5
2017-Nov-15 22:00N 46°00' W 085°54'0 0.0 310 / 61000.5 5.2 5.4
2017-Nov-15 21:00N 46°00' W 085°54'0 0.0 290 / 8999.8 6.0 5.5
2017-Nov-15 20:00N 46°00' W 085°54'0 0.0 260 / 7999.8 6.5 5.4
2017-Nov-15 19:00N 46°00' W 085°54'0 0.0 260 / 61000.5 6.8 5.4
2017-Nov-15 18:00N 46°00' W 085°54'0 0.0 220 / 61001.5 6.9 5.4
2017-Nov-15 17:00N 46°00' W 085°54'0 0.0 200 / 111003.2 7.7 5.4
2017-Nov-15 16:00N 46°00' W 085°54'0 0.0 180 / 111004.5 7.4 5.4
2017-Nov-15 15:00N 46°00' W 085°54'0 0.0 180 / 141005.5 7.3 5.4
2017-Nov-15 14:00N 46°00' W 085°54'0 0.0 180 / 141006.6 7.4 5.3
2017-Nov-15 13:00N 46°00' W 085°54'0 0.0 180 / 141007.6 7.5 5.3
2017-Nov-15 12:00N 46°00' W 085°54'0 0.0 180 / 131008.3 7.4 5.3
2017-Nov-15 11:00N 46°00' W 085°54'0 0.0 180 / 141009.3 7.3 5.3
2017-Nov-15 10:00N 46°00' W 085°54'0 0.0 160 / 131010.3 7.4 5.3
2017-Nov-15 09:00N 46°00' W 085°54'0 0.0 170 / 131011.3 7.3 5.3
2017-Nov-15 08:00N 46°00' W 085°54'0 0.0 160 / 121012.3 7.3 5.2
2017-Nov-15 07:00N 46°00' W 085°54'0 0.0 170 / 111013.3 7.1 5.2
2017-Nov-15 06:00N 46°00' W 085°54'0 0.0 170 / 131014.0 7.2 5.2
2017-Nov-15 05:00N 46°00' W 085°54'0 0.0 190 / 171014.7 7.5 5.2
2017-Nov-15 04:00N 46°00' W 085°54'0 0.0 180 / 141015.4 7.0 5.2
2017-Nov-15 03:00N 46°00' W 085°54'   190 / 191015.7 7.6 5.1
Track history (hours):
 
Tides and Currents Weather Stations Pressure Air Temp Water Temp Dewpoint Dewpoint Depression Visibility Wind Speed Wind Dir Waves Ship Positions

Str. Kaye Barker

Owner: THE INTERLAKE STEAMSHIP COMPANY, Middleburg Heights, OH. More information available from US FCC via Universal Licensing System and Coast Guard Vessel Documentation Center.

Last reported at 2017-Nov-25 03:00 UTC. Time now 2017-Nov-25 04:13 UTC.
Position N 44°30' W 088°00'.

Length 223 m; draft 7.9 m.

Type: Cargo ship. MMSI: 366904910.

Wind from 280 at 7 knots

Barometer 996.7 mb
Air temperature 10.2 ° C
Water temperature 1.8 ° C

Date/timePositionNaut miles runAvg speedWind from/ knotsBaromVisibWave heightAir tempDewpointWater temp
2017-Nov-25 03:00N 44°30' W 088°00'0 0.0 280 / 7996.7 10.2 1.8
2017-Nov-25 02:00N 44°30' W 088°00'0 0.0 290 / 11996.1 11.4 1.9
2017-Nov-25 01:00N 44°30' W 088°00'0 0.0 250 / 9995.0 14.3 1.8
2017-Nov-25 00:00N 44°30' W 088°00'0 0.0 250 / 6993.7 15.2 1.7
2017-Nov-24 23:00N 44°30' W 088°00'0 0.0 260 / 8993.4 15.3 1.7
2017-Nov-24 22:00N 44°30' W 088°00'6 6.0 230 / 13992.0 16.4 1.7
2017-Nov-24 21:00N 44°36' W 088°00'7 7.4 210 / 21991.0 16.2 2.1
2017-Nov-24 20:00N 44°42' W 087°54'4 4.3 210 / 22989.6 11.6 3.0
2017-Nov-24 19:00N 44°42' W 087°48'0 0.0 220 / 23991.3 10.8 3.5
2017-Nov-24 18:00N 44°42' W 087°48'0 0.0 220 / 20993.0 9.6 3.5
2017-Nov-24 17:00N 44°42' W 087°48'0 0.0 220 / 24994.0 8.2 3.5
2017-Nov-24 16:00N 44°42' W 087°48'0 0.0 210 / 26995.4 7.6 3.5
2017-Nov-24 15:00N 44°42' W 087°48'1312.7 210 / 18996.7 6.4 3.6
2017-Nov-24 14:00N 44°54' W 087°42'1010.4 220 / 26996.4 6.5 4.3
2017-Nov-24 13:00N 45°00' W 087°30'1312.7 220 / 28996.7 7.0 5.5
2017-Nov-24 12:00N 45°12' W 087°24'1010.4 210 / 29996.7 6.3 5.7
2017-Nov-24 11:00N 45°18' W 087°12'1414.0 210 / 29997.4 6.1 5.5
2017-Nov-24 10:00N 45°24' W 086°54'1010.3 210 / 29997.8 6.5 4.9
2017-Nov-24 09:00N 45°30' W 086°42'1414.0 200 / 301000.1 5.9 4.9
2017-Nov-24 08:00N 45°36' W 086°24'1514.6 210 / 331000.8 6.4 5.7
2017-Nov-24 07:00N 45°48' W 086°12'1010.3 210 / 321001.5 6.1 5.5
2017-Nov-24 06:00N 45°54' W 086°00'226.6 220 / 331003.5 6.1 5.9
2017-Nov-24 05:54N 45°52' W 085°57'512.5
2017-Nov-24 05:30N 45°53' W 085°50'612.6
2017-Nov-24 05:00N 45°53' W 085°41'175.5
2017-Nov-24 05:00N 45°54' W 085°42'714.1 210 / 311004.5 5.8 5.6
2017-Nov-24 04:30N 45°53' W 085°32'612.8
2017-Nov-24 04:00N 45°53' W 085°23'177.9
2017-Nov-24 04:00N 45°54' W 085°24'714.9 200 / 221006.6 4.8 5.5
2017-Nov-24 03:30N 45°52' W 085°14'713.1
2017-Nov-24 03:00N 45°51' W 085°05'3214.2
2017-Nov-24 03:00N 45°54' W 085°06'817.2 230 / 181007.9 4.5 5.1
2017-Nov-24 02:30N 45°50' W 084°55'713.0
2017-Nov-24 02:00N 45°49' W 084°46'2133.3
2017-Nov-24 02:00N 45°48' W 084°48'715.1 250 / 121008.9 3.7 4.8
2017-Nov-24 01:30N 45°47' W 084°38'713.1
2017-Nov-24 01:00N 45°43' W 084°30'183.6
2017-Nov-24 01:00N 45°42' W 084°30'712.8 220 / 61010.3 2.5 4.9
2017-Nov-24 00:27N 45°41' W 084°20'612.7
2017-Nov-24 00:00N 45°42' W 084°12'713.9 250 / 151009.9 3.1 5.7
2017-Nov-23 23:28N 45°38' W 084°04'613.0
2017-Nov-23 23:00N 45°35' W 083°56'1665.9
2017-Nov-23 23:00N 45°36' W 083°54'612.1 280 / 181009.3 3.4 5.9
2017-Nov-23 22:30N 45°32' W 083°48'612.8
2017-Nov-23 22:00N 45°29' W 083°39'2251.1
2017-Nov-23 22:00N 45°30' W 083°42'817.1
2017-Nov-23 21:30N 45°26' W 083°31'611.0
2017-Nov-23 21:00N 45°24' W 083°24'1514.7 270 / 231008.9 3.7 6.1
2017-Nov-23 20:00N 45°12' W 083°12'1312.7 260 / 191008.9 3.4 6.1
2017-Nov-23 19:00N 45°00' W 083°06'1312.7 230 / 171009.6 2.8 6.0
2017-Nov-23 18:00N 44°48' W 083°00'1312.7 220 / 201010.6 2.0 5.9
2017-Nov-23 17:00N 44°36' W 082°54'1312.7 220 / 241011.610.8 2.2 5.6
2017-Nov-23 16:00N 44°24' W 082°48'1312.7 230 / 241013.3 1.7 5.5
2017-Nov-23 15:00N 44°12' W 082°42'1312.8 240 / 241014.3 1.2 5.6
2017-Nov-23 14:00N 44°00' W 082°36'1312.8 220 / 191015.7 0.6 5.8
2017-Nov-23 13:00N 43°48' W 082°30'1212.0 220 / 161016.4 0.1 5.7
2017-Nov-23 12:00N 43°36' W 082°30'1818.0 210 / 191017.1 0.1 5.8
2017-Nov-23 11:00N 43°18' W 082°30'1312.8 230 / 171017.4 0.2 6.0
2017-Nov-23 10:00N 43°06' W 082°24'1212.0 220 / 161018.4 -0.1 6.2
2017-Nov-23 09:00N 42°54' W 082°24'7 7.4 210 / 121019.4 -0.1 5.8
2017-Nov-23 08:00N 42°48' W 082°30'1212.0 200 / 41020.4 -0.7 5.7
2017-Nov-23 07:00N 42°36' W 082°30'1110.7 190 / 41021.1 0.4 5.8
2017-Nov-23 06:00N 42°30' W 082°42'1110.7 210 / 121020.9 1.1 5.2
2017-Nov-23 05:00N 42°24' W 082°54'1110.7 170 / 81021.3 0.2 4.3
2017-Nov-23 04:00N 42°18' W 083°06'1212.0 120 / 41021.9 -0.9 4.3
2017-Nov-23 03:00N 42°06' W 083°06'6 6.0 340 / 21022.6 0.2 4.3
2017-Nov-23 02:00N 42°00' W 083°06'1312.8 220 / 91022.9 1.4 4.3
2017-Nov-23 01:00N 41°48' W 083°12'1110.8 180 / 111023.2 1.2 4.2
2017-Nov-23 00:00N 41°42' W 083°24'4 4.5 150 / 61023.9 0.3 4.5
2017-Nov-22 23:00N 41°42' W 083°30'0 0.0 210 / 11024.2 1.3 4.7
2017-Nov-22 22:00N 41°42' W 083°30'0 0.0 290 / 41023.9 1.5 4.6
2017-Nov-22 21:00N 41°42' W 083°30'0 0.0 300 / 71023.9 1.6 4.7
2017-Nov-22 20:00N 41°42' W 083°30'0 0.0 290 / 61023.9 1.7 4.6
2017-Nov-22 19:00N 41°42' W 083°30'0 0.0 240 / 61023.9 1.4 4.6
2017-Nov-22 18:00N 41°42' W 083°30'0 0.0 010 / 21023.9 1.8 4.6
2017-Nov-22 17:00N 41°42' W 083°30'4 4.5 320 / 71024.5 0.9 4.5
2017-Nov-22 16:00N 41°42' W 083°24'0 0.0 330 / 41024.9 0.4 4.9
2017-Nov-22 15:00N 41°42' W 083°24'0 0.0 360 / 71024.2 -0.5 4.9
2017-Nov-22 14:00N 41°42' W 083°24'0 0.0 360 / 81023.9 -0.3 4.9
2017-Nov-22 13:00N 41°42' W 083°24'0 0.0 360 / 101023.5 -0.1 4.8
2017-Nov-22 12:00N 41°42' W 083°24'0 0.0 350 / 71022.5 0.3 5.2
2017-Nov-22 11:00N 41°42' W 083°24'0 0.0 320 / 81021.8 0.4 5.1
2017-Nov-22 10:00N 41°42' W 083°24'0 0.0 360 / 81020.8 0.5 5.3
2017-Nov-22 09:00N 41°42' W 083°24'0 0.0 360 / 71019.8 1.1 5.4
2017-Nov-22 08:00N 41°42' W 083°24'0 0.0 360 / 71019.5 1.6 5.3
2017-Nov-22 07:00N 41°42' W 083°24'0 0.0 320 / 81018.5 1.9 5.0
2017-Nov-22 06:00N 41°42' W 083°24'7 7.5 310 / 101017.8 2.6 4.8
2017-Nov-22 05:00N 41°48' W 083°18'1110.8 290 / 221015.7 2.9 4.2
2017-Nov-22 04:00N 41°54' W 083°06'6 6.0 290 / 221014.7 3.5 4.3
2017-Nov-22 03:00N 42°00' W 083°06'1212.0 310 / 161014.4 4.0 4.4
2017-Nov-22 02:00N 42°12' W 083°06'7 7.5 300 / 81013.8 4.2 4.7
2017-Nov-22 01:00N 42°18' W 083°00'1110.7 270 / 131012.8 4.5 4.8
2017-Nov-22 00:00N 42°24' W 082°48'7 7.5 270 / 191011.5 4.9 4.7
2017-Nov-21 23:00N 42°30' W 082°42'1110.7 260 / 121010.8 6.6 5.8
2017-Nov-21 22:00N 42°36' W 082°30'1212.0 280 / 111009.6 7.1 5.6
2017-Nov-21 21:00N 42°48' W 082°30'1312.8 210 / 111007.6 9.0 5.6
2017-Nov-21 20:00N 43°00' W 082°24'6 6.0 210 / 121006.2 9.4 5.8
2017-Nov-21 19:00N 43°06' W 082°24'1212.0 220 / 191005.2 9.7 6.8
2017-Nov-21 18:00N 43°18' W 082°24'1312.8 220 / 181003.9 9.3 6.3
2017-Nov-21 17:00N 43°30' W 082°30'1212.0 220 / 221002.8 8.5 6.1
2017-Nov-21 16:00N 43°42' W 082°30'1312.8 220 / 261002.2 7.5 6.3
2017-Nov-21 15:00N 43°54' W 082°36'1514.8 220 / 231001.5 7.0 5.8
2017-Nov-21 14:00N 44°06' W 082°48'1312.7 210 / 31999.8 6.9 5.8
2017-Nov-21 13:00N 44°18' W 082°54'1514.7 210 / 38997.810.8 6.8 5.8
2017-Nov-21 12:00N 44°30' W 083°06'7 7.4 210 / 39997.1 6.2 5.6
2017-Nov-21 11:00N 44°36' W 083°12'1312.7 210 / 32996.7 6.0 5.6
2017-Nov-21 10:00N 44°48' W 083°06'1212.0 200 / 34996.1 5.8 6.4
2017-Nov-21 09:00N 45°00' W 083°06'1212.0 200 / 28996.4 6.9 6.3
2017-Nov-21 08:00N 45°12' W 083°06'1514.7 200 / 35995.4 7.1 6.4
2017-Nov-21 07:00N 45°24' W 083°18'1010.3 190 / 33995.0 7.3 6.6
2017-Nov-21 06:00N 45°30' W 083°30'1514.6 200 / 32995.0 8.0 6.4
2017-Nov-21 05:00N 45°42' W 083°42'1312.7 190 / 29995.4 7.4 6.2
2017-Nov-21 04:00N 45°54' W 083°48'1010.3 190 / 26996.1 6.9 4.7
2017-Nov-21 03:00N 46°00' W 084°00'1312.7 170 / 18997.8 5.7 3.0
2017-Nov-21 02:00N 46°12' W 084°06'7 7.3 160 / 16998.8 5.0 3.7
2017-Nov-21 01:00N 46°18' W 084°12'7 7.3 140 / 101000.1 4.0 4.4
2017-Nov-21 00:00N 46°24' W 084°18'6 6.0 120 / 141001.5 2.9 4.5
2017-Nov-20 23:00N 46°30' W 084°18'4 4.1 100 / 81002.8 2.4 4.7
2017-Nov-20 22:00N 46°30' W 084°24'0 0.0 110 / 71003.7 2.4 4.6
2017-Nov-20 21:00N 46°30' W 084°24'0 0.0 100 / 81004.4 1.9 4.5
2017-Nov-20 20:00N 46°30' W 084°24'0 0.0 110 / 131004.7 2.0 4.8
2017-Nov-20 19:00N 46°30' W 084°24'8 8.3 150 / 121006.1 1.8 5.4
2017-Nov-20 18:00N 46°30' W 084°36'1514.6 160 / 141006.4 1.8 5.6
2017-Nov-20 17:00N 46°42' W 084°48'1010.2 140 / 171006.8 0.9 6.1
2017-Nov-20 16:00N 46°48' W 085°00'1212.3 160 / 141007.5 -0.0 5.4
2017-Nov-20 15:00N 46°48' W 085°18'1212.3 160 / 131008.1 -0.9 5.2
2017-Nov-20 14:00N 46°48' W 085°36'1212.3 200 / 101008.810.8 -0.7 5.5
2017-Nov-20 13:00N 46°48' W 085°54'8 8.2 180 / 101008.5 -0.9 5.2
2017-Nov-20 12:00N 46°48' W 086°06'1413.7 190 / 131008.8 -0.7 5.6
2017-Nov-20 11:00N 46°42' W 086°24'1616.5 210 / 111009.1 -0.0 5.1
2017-Nov-20 10:00N 46°42' W 086°48'1413.7 220 / 111009.1 -0.9 5.3
2017-Nov-20 09:00N 46°36' W 087°06'1212.4 220 / 131009.8 -1.4 5.4
2017-Nov-20 08:00N 46°36' W 087°24'0 0.0 250 / 101009.8 -2.4 4.6
2017-Nov-20 07:00N 46°36' W 087°24'0 0.0 180 / 21010.2 -2.5 4.5
2017-Nov-20 06:00N 46°36' W 087°24'0 0.0 110 / 21010.5 -2.1 4.5
2017-Nov-20 05:00N 46°36' W 087°24'0 0.0 270 / 21010.5 -1.9 4.5
2017-Nov-20 04:00N 46°36' W 087°24'0 0.0 250 / 11010.5 -2.5 4.5
2017-Nov-20 03:00N 46°36' W 087°24'0 0.0 240 / 21010.8 -3.2 4.5
2017-Nov-20 02:00N 46°36' W 087°24'0 0.0 110 / 21010.8 -3.4 4.4
2017-Nov-20 01:00N 46°36' W 087°24'0 0.0 220 / 31010.8 -3.5 4.4
2017-Nov-20 00:00N 46°36' W 087°24'0 0.0 190 / 21010.8 -3.6 4.4
2017-Nov-19 23:00N 46°36' W 087°24'0 0.0 130 / 21011.2 -3.5 4.4
2017-Nov-19 22:00N 46°36' W 087°24'0 0.0 230 / 21011.5 -3.2 4.5
2017-Nov-19 21:00N 46°36' W 087°24'0 0.0 230 / 21011.5 -3.1 4.5
2017-Nov-19 20:00N 46°36' W 087°24'0 0.0 130 / 21010.8 -2.8 4.7
2017-Nov-19 19:00N 46°36' W 087°24'0 0.0 250 / 21011.2 -2.7 4.9
2017-Nov-19 18:00N 46°36' W 087°24'0 0.0 230 / 31011.2 -2.9 4.9
2017-Nov-19 17:00N 46°36' W 087°24'0 0.0 250 / 21011.5 -3.2 5.0
2017-Nov-19 16:00N 46°36' W 087°24'0 0.0 240 / 21011.9 -3.3 5.1
2017-Nov-19 15:00N 46°36' W 087°24'0 0.0 220 / 21011.5 -3.5 5.1
2017-Nov-19 14:00N 46°36' W 087°24'0 0.0 250 / 21011.2 -3.5 5.1
2017-Nov-19 13:00N 46°36' W 087°24'0 0.0 300 / 31010.8 -3.6 5.1
2017-Nov-19 12:00N 46°36' W 087°24'0 0.0 300 / 31010.5 -3.3 5.1
2017-Nov-19 11:00N 46°36' W 087°24'0 0.0 310 / 51010.5 -3.0 5.2
2017-Nov-19 10:00N 46°36' W 087°24'0 0.0 340 / 41009.8 -2.6 5.2
2017-Nov-19 09:00N 46°36' W 087°24'0 0.0 330 / 31009.1 -2.3 5.2
2017-Nov-19 08:00N 46°36' W 087°24'0 0.0 320 / 71009.5 -2.3 5.3
2017-Nov-19 07:00N 46°36' W 087°24'0 0.0 270 / 51008.8 -1.8 5.2
2017-Nov-19 06:00N 46°36' W 087°24'0 0.0 340 / 81008.1 -1.6 5.2
2017-Nov-19 05:00N 46°36' W 087°24'0 0.0 350 / 61007.8 -1.3 5.2
2017-Nov-19 04:00N 46°36' W 087°24'0 0.0 320 / 111007.1 -0.8 5.2
2017-Nov-19 03:00N 46°36' W 087°24'0 0.0 320 / 61006.8 -0.2 5.1
2017-Nov-19 02:00N 46°36' W 087°24'0 0.0 280 / 141006.1 0.6 5.0
2017-Nov-19 01:00N 46°36' W 087°24'0 0.0 300 / 51005.8 -0.0 5.0
2017-Nov-19 00:00N 46°36' W 087°24'0 0.0 300 / 111005.8 0.2 5.0
2017-Nov-18 23:00N 46°36' W 087°24'0 0.0 310 / 171004.7 1.0 4.9
2017-Nov-18 22:00N 46°36' W 087°24'0 0.0 320 / 81004.7 1.4 4.9
2017-Nov-18 21:00N 46°36' W 087°24'0 0.0 320 / 91003.7 1.9 4.9
2017-Nov-18 20:00N 46°36' W 087°24'0 0.0 320 / 121003.0 2.9 4.9
2017-Nov-18 19:00N 46°36' W 087°24'0 0.0 340 / 171002.7 3.1 4.9
2017-Nov-18 18:00N 46°36' W 087°24'0 0.0 350 / 141002.4 3.5 4.9
2017-Nov-18 17:00N 46°36' W 087°24'0 0.0 360 / 141002.4 3.9 5.0
2017-Nov-18 16:00N 46°36' W 087°24'0 0.0 010 / 141002.7 4.1 5.0
2017-Nov-18 15:00N 46°36' W 087°24'1212.4 360 / 241002.0 4.3 5.4
2017-Nov-18 14:00N 46°36' W 087°06'1413.7 340 / 221001.7 4.1 5.4
2017-Nov-18 13:00N 46°42' W 086°48'1212.3 350 / 181001.4 4.3 4.9
2017-Nov-18 12:00N 46°42' W 086°30'1616.5 1001.4 4.0 6.0
2017-Nov-18 11:00N 46°42' W 086°06'1413.7 350 / 181000.7 4.0 5.8
2017-Nov-18 10:00N 46°48' W 085°48'1212.3 340 / 141000.7 3.9 5.6
2017-Nov-18 09:00N 46°48' W 085°30'1212.3 200 / 61000.3 2.5 5.7
2017-Nov-18 08:00N 46°48' W 085°12'1413.7 160 / 81001.0 2.4 5.3
2017-Nov-18 07:00N 46°42' W 084°54'1010.2 180 / 141001.4 2.9 6.2
2017-Nov-18 06:00N 46°36' W 084°42'1010.2 130 / 181002.0 2.2 6.4
2017-Nov-18 05:00N 46°30' W 084°30'4 4.1 110 / 81002.7 1.9 5.8
2017-Nov-18 04:00N 46°30' W 084°24'4 4.1 110 / 41004.1 1.8 5.3
2017-Nov-18 03:00N 46°30' W 084°18'7 7.3 130 / 101004.9 1.8 4.9
2017-Nov-18 02:00N 46°24' W 084°12'7 7.3 150 / 101006.2 1.4 4.8
2017-Nov-18 01:00N 46°18' W 084°06'6 6.0 150 / 101007.6 2.2 4.8
2017-Nov-18 00:00N 46°12' W 084°06'1514.6 140 / 171008.3 2.9 4.2
2017-Nov-17 23:00N 46°00' W 083°54'7 7.3 160 / 241008.3 3.6 3.3
2017-Nov-17 22:00N 45°54' W 084°00'1413.9 140 / 291008.9 3.1 6.1
2017-Nov-17 21:00N 45°48' W 084°18'718.0 140 / 281008.9 2.7 6.9
2017-Nov-17 20:35N 45°51' W 084°28'112.7
2017-Nov-17 20:30N 45°51' W 084°29'510.4
2017-Nov-17 20:00N 45°48' W 084°36'357.4 130 / 171010.3 1.5 5.9
2017-Nov-17 19:57N 45°50' W 084°39'511.8
2017-Nov-17 19:30N 45°49' W 084°46'612.2
2017-Nov-17 19:00N 45°49' W 084°55'1114.6
2017-Nov-17 19:00N 45°48' W 084°54'714.7 120 / 211011.6 1.1 6.2
2017-Nov-17 18:30N 45°50' W 085°04'4 8.9
2017-Nov-17 18:00N 45°47' W 085°09'2171.9
2017-Nov-17 18:00N 45°48' W 085°06'816.0 120 / 101014.3 1.8 6.1
2017-Nov-17 17:30N 45°42' W 085°13'713.4
2017-Nov-17 17:00N 45°36' W 085°18'137.0
2017-Nov-17 17:00N 45°36' W 085°18'613.4 190 / 171016.0 1.8 8.6
2017-Nov-17 16:30N 45°31' W 085°24'713.6
2017-Nov-17 16:00N 45°26' W 085°30'2109.2
2017-Nov-17 16:00N 45°24' W 085°30'511.3 180 / 241016.0 2.1 8.5
2017-Nov-17 15:30N 45°20' W 085°36'713.6
2017-Nov-17 15:00N 45°15' W 085°42'3250.3
2017-Nov-17 15:00N 45°18' W 085°42'919.1 160 / 221017.4 1.5 8.5
2017-Nov-17 14:30N 45°09' W 085°47'611.5
2017-Nov-17 14:00N 45°06' W 085°54'1514.7 160 / 191018.4 0.7 8.0
2017-Nov-17 13:00N 44°54' W 086°06'1010.4 140 / 191018.4 0.9 7.8
2017-Nov-17 12:00N 44°48' W 086°18'1312.7 140 / 181019.4 0.4 8.1
2017-Nov-17 11:00N 44°36' W 086°24'1312.7 180 / 201020.1 0.8 8.8
2017-Nov-17 10:00N 44°24' W 086°30'1918.5 140 / 191020.8 0.5 8.0
2017-Nov-17 09:00N 44°06' W 086°36'1212.0 140 / 171021.5 0.7 7.4
2017-Nov-17 08:00N 43°54' W 086°36'1212.0 150 / 121022.5 1.3 7.7
2017-Nov-17 07:00N 43°42' W 086°36'1312.8 120 / 131022.1 1.0 7.4
2017-Nov-17 06:00N 43°30' W 086°30'1312.8 110 / 141021.8 0.8 7.5
2017-Nov-17 05:00N 43°18' W 086°24'1312.8 080 / 141022.5 0.7 7.3
2017-Nov-17 04:00N 43°06' W 086°18'4 4.4 040 / 121022.8 0.5 6.2
2017-Nov-17 03:00N 43°06' W 086°12'0 0.0 020 / 41023.8 0.5 4.1
2017-Nov-17 02:00N 43°06' W 086°12'0 0.0 330 / 31023.8 -0.0 4.1
2017-Nov-17 01:00N 43°06' W 086°12'0 0.0 350 / 41023.5 0.6 4.3
2017-Nov-17 00:00N 43°06' W 086°12'0 0.0 350 / 41023.2 1.5 4.2
2017-Nov-16 23:00N 43°06' W 086°12'0 0.0 340 / 61022.5 2.6 4.2
2017-Nov-16 22:00N 43°06' W 086°12'0 0.0 320 / 61022.1 3.4 4.1
2017-Nov-16 21:00N 43°06' W 086°12'0 0.0 340 / 71021.5 4.4 4.3
2017-Nov-16 20:00N 43°06' W 086°12'9 8.8 340 / 101021.1 3.7 4.5
2017-Nov-16 19:00N 43°06' W 086°24'1312.8 330 / 201021.1 3.4 7.7
2017-Nov-16 18:00N 43°18' W 086°30'1312.8 320 / 191021.1 3.5 8.1
2017-Nov-16 17:00N 43°30' W 086°36'1514.8 330 / 211021.1 2.7 7.8
2017-Nov-16 16:00N 43°42' W 086°48'1312.8 340 / 201021.1 2.7 7.8
2017-Nov-16 15:00N 43°54' W 086°54'2713.6 340 / 251020.4 2.2 7.6
2017-Nov-16 13:00N 44°18' W 087°12'1312.7 330 / 271018.4 1.3 6.7
2017-Nov-16 12:00N 44°30' W 087°18'7 7.4 340 / 251017.1 1.6 5.5
2017-Nov-16 11:00N 44°36' W 087°12'1312.7 330 / 251015.7 1.4 6.5
2017-Nov-16 10:00N 44°48' W 087°06'6 6.0 330 / 221014.3 1.9 7.2
2017-Nov-16 09:00N 44°54' W 087°06'7 7.4 320 / 281012.7 1.8 6.0
2017-Nov-16 08:00N 45°00' W 087°00'1312.7 320 / 291011.0 2.2 6.2
2017-Nov-16 07:00N 45°12' W 086°54'1010.4 320 / 301008.9 3.0 5.5
2017-Nov-16 06:00N 45°18' W 086°42'7 7.3 320 / 301007.2 3.5 5.9
2017-Nov-16 05:00N 45°24' W 086°36'7 7.3 300 / 331005.5 4.2 7.3
2017-Nov-16 04:00N 45°30' W 086°30'7 7.3 290 / 351003.5 4.3 7.9
2017-Nov-16 03:00N 45°36' W 086°24'1312.7 280 / 381001.8 4.2 8.2
2017-Nov-16 02:00N 45°48' W 086°18'1413.9 280 / 251001.1 3.7 7.3
2017-Nov-16 01:00N 45°54' W 086°00'516.7 290 / 27999.8 4.9 7.3
2017-Nov-16 00:41N 45°52' W 085°53'810.8
2017-Nov-16 00:00N 46°00' W 085°54'0 0.0 290 / 161000.5 4.9 5.4
2017-Nov-15 23:00N 46°00' W 085°54'0 0.0 290 / 81000.5 5.0 5.5
2017-Nov-15 22:00N 46°00' W 085°54'0 0.0 310 / 61000.5 5.2 5.4
2017-Nov-15 21:00N 46°00' W 085°54'0 0.0 290 / 8999.8 6.0 5.5
2017-Nov-15 20:00N 46°00' W 085°54'0 0.0 260 / 7999.8 6.5 5.4
2017-Nov-15 19:00N 46°00' W 085°54'0 0.0 260 / 61000.5 6.8 5.4
2017-Nov-15 18:00N 46°00' W 085°54'0 0.0 220 / 61001.5 6.9 5.4
2017-Nov-15 17:00N 46°00' W 085°54'0 0.0 200 / 111003.2 7.7 5.4
2017-Nov-15 16:00N 46°00' W 085°54'0 0.0 180 / 111004.5 7.4 5.4
2017-Nov-15 15:00N 46°00' W 085°54'0 0.0 180 / 141005.5 7.3 5.4
2017-Nov-15 14:00N 46°00' W 085°54'0 0.0 180 / 141006.6 7.4 5.3
2017-Nov-15 13:00N 46°00' W 085°54'0 0.0 180 / 141007.6 7.5 5.3
2017-Nov-15 12:00N 46°00' W 085°54'0 0.0 180 / 131008.3 7.4 5.3
2017-Nov-15 11:00N 46°00' W 085°54'0 0.0 180 / 141009.3 7.3 5.3
2017-Nov-15 10:00N 46°00' W 085°54'0 0.0 160 / 131010.3 7.4 5.3
2017-Nov-15 09:00N 46°00' W 085°54'0 0.0 170 / 131011.3 7.3 5.3
2017-Nov-15 08:00N 46°00' W 085°54'0 0.0 160 / 121012.3 7.3 5.2
2017-Nov-15 07:00N 46°00' W 085°54'0 0.0 170 / 111013.3 7.1 5.2
2017-Nov-15 06:00N 46°00' W 085°54'0 0.0 170 / 131014.0 7.2 5.2
2017-Nov-15 05:00N 46°00' W 085°54'0 0.0 190 / 171014.7 7.5 5.2
2017-Nov-15 04:00N 46°00' W 085°54'0 0.0 180 / 141015.4 7.0 5.2
2017-Nov-15 03:00N 46°00' W 085°54'   190 / 191015.7 7.6 5.1

Dump ship's entire track history